sensor_id;sensor_type;location;lat;lon;timestamp;temperature;humidity
24814;DHT22;12904;50.088;11.414;2023-07-08T00:01:12;14.40;99.90
24814;DHT22;12904;50.088;11.414;2023-07-08T00:03:39;14.30;99.90
24814;DHT22;12904;50.088;11.414;2023-07-08T00:06:04;14.20;99.90
24814;DHT22;12904;50.088;11.414;2023-07-08T00:08:33;14.20;99.90
24814;DHT22;12904;50.088;11.414;2023-07-08T00:10:59;14.20;99.90
24814;DHT22;12904;50.088;11.414;2023-07-08T00:13:24;14.20;99.90
24814;DHT22;12904;50.088;11.414;2023-07-08T00:15:50;14.10;99.90
24814;DHT22;12904;50.088;11.414;2023-07-08T00:18:17;14.00;99.90
24814;DHT22;12904;50.088;11.414;2023-07-08T00:20:48;13.90;99.90
24814;DHT22;12904;50.088;11.414;2023-07-08T00:23:14;13.80;99.90
24814;DHT22;12904;50.088;11.414;2023-07-08T00:25:40;13.80;99.90
24814;DHT22;12904;50.088;11.414;2023-07-08T00:30:35;13.70;99.90
24814;DHT22;12904;50.088;11.414;2023-07-08T00:33:01;13.70;99.90
24814;DHT22;12904;50.088;11.414;2023-07-08T00:38:21;13.80;99.90
24814;DHT22;12904;50.088;11.414;2023-07-08T00:43:49;13.60;99.90
24814;DHT22;12904;50.088;11.414;2023-07-08T00:49:10;13.50;99.90
24814;DHT22;12904;50.088;11.414;2023-07-08T00:51:39;13.40;99.90
24814;DHT22;12904;50.088;11.414;2023-07-08T00:54:10;13.20;99.90
24814;DHT22;12904;50.088;11.414;2023-07-08T00:59:35;13.00;99.90
24814;DHT22;12904;50.088;11.414;2023-07-08T01:02:01;13.00;99.90
24814;DHT22;12904;50.088;11.414;2023-07-08T01:04:32;12.90;99.90
24814;DHT22;12904;50.088;11.414;2023-07-08T01:07:01;12.90;99.90
24814;DHT22;12904;50.088;11.414;2023-07-08T01:09:34;12.90;99.90
24814;DHT22;12904;50.088;11.414;2023-07-08T01:12:05;12.90;99.90
24814;DHT22;12904;50.088;11.414;2023-07-08T01:14:34;12.90;99.90
24814;DHT22;12904;50.088;11.414;2023-07-08T01:17:01;12.80;99.90
24814;DHT22;12904;50.088;11.414;2023-07-08T01:19:28;12.70;99.90
24814;DHT22;12904;50.088;11.414;2023-07-08T01:22:04;12.70;99.90
24814;DHT22;12904;50.088;11.414;2023-07-08T01:24:31;12.60;99.90
24814;DHT22;12904;50.088;11.414;2023-07-08T01:26:59;12.60;99.90
24814;DHT22;12904;50.088;11.414;2023-07-08T01:29:25;12.60;99.90
24814;DHT22;12904;50.088;11.414;2023-07-08T01:31:51;12.60;99.90
24814;DHT22;12904;50.088;11.414;2023-07-08T01:34:17;12.60;99.90
24814;DHT22;12904;50.088;11.414;2023-07-08T01:36:55;12.60;99.90
24814;DHT22;12904;50.088;11.414;2023-07-08T01:39:23;12.70;99.90
24814;DHT22;12904;50.088;11.414;2023-07-08T01:41:49;12.70;99.90
24814;DHT22;12904;50.088;11.414;2023-07-08T01:46:56;12.60;99.90
24814;DHT22;12904;50.088;11.414;2023-07-08T01:49:23;12.60;99.90
24814;DHT22;12904;50.088;11.414;2023-07-08T01:51:50;12.60;99.90
24814;DHT22;12904;50.088;11.414;2023-07-08T01:54:16;12.60;99.90
24814;DHT22;12904;50.088;11.414;2023-07-08T01:56:42;12.50;99.90
24814;DHT22;12904;50.088;11.414;2023-07-08T01:59:07;12.50;99.90
24814;DHT22;12904;50.088;11.414;2023-07-08T02:01:33;12.50;99.90
24814;DHT22;12904;50.088;11.414;2023-07-08T02:03:58;12.40;99.90
24814;DHT22;12904;50.088;11.414;2023-07-08T02:06:24;12.40;99.90
24814;DHT22;12904;50.088;11.414;2023-07-08T02:08:50;12.30;99.90
24814;DHT22;12904;50.088;11.414;2023-07-08T02:11:16;12.30;99.90
24814;DHT22;12904;50.088;11.414;2023-07-08T02:13:42;12.10;99.90
24814;DHT22;12904;50.088;11.414;2023-07-08T02:16:08;12.00;99.90
24814;DHT22;12904;50.088;11.414;2023-07-08T02:18:33;11.90;99.90
24814;DHT22;12904;50.088;11.414;2023-07-08T02:20:59;11.80;99.90
24814;DHT22;12904;50.088;11.414;2023-07-08T02:23:25;11.80;99.90
24814;DHT22;12904;50.088;11.414;2023-07-08T02:25:55;11.80;99.90
24814;DHT22;12904;50.088;11.414;2023-07-08T02:28:21;11.90;99.90
24814;DHT22;12904;50.088;11.414;2023-07-08T02:30:47;11.90;99.90
24814;DHT22;12904;50.088;11.414;2023-07-08T02:33:13;12.00;99.90
24814;DHT22;12904;50.088;11.414;2023-07-08T02:35:40;12.10;99.90
24814;DHT22;12904;50.088;11.414;2023-07-08T02:38:06;12.20;99.90
24814;DHT22;12904;50.088;11.414;2023-07-08T02:40:31;12.30;99.90
24814;DHT22;12904;50.088;11.414;2023-07-08T02:42:57;12.30;99.90
24814;DHT22;12904;50.088;11.414;2023-07-08T02:45:22;12.30;99.90
24814;DHT22;12904;50.088;11.414;2023-07-08T02:47:48;12.30;99.90
24814;DHT22;12904;50.088;11.414;2023-07-08T02:50:14;12.30;99.90
24814;DHT22;12904;50.088;11.414;2023-07-08T02:52:39;12.30;99.90
24814;DHT22;12904;50.088;11.414;2023-07-08T02:55:05;12.30;99.90
24814;DHT22;12904;50.088;11.414;2023-07-08T02:57:31;12.30;99.90
24814;DHT22;12904;50.088;11.414;2023-07-08T02:59:57;12.30;99.90
24814;DHT22;12904;50.088;11.414;2023-07-08T03:02:23;12.30;99.90
24814;DHT22;12904;50.088;11.414;2023-07-08T03:04:49;12.30;99.90
24814;DHT22;12904;50.088;11.414;2023-07-08T03:07:15;12.20;99.90
24814;DHT22;12904;50.088;11.414;2023-07-08T03:09:42;12.30;99.90
24814;DHT22;12904;50.088;11.414;2023-07-08T03:12:08;12.20;99.90
24814;DHT22;12904;50.088;11.414;2023-07-08T03:14:35;12.20;99.90
24814;DHT22;12904;50.088;11.414;2023-07-08T03:17:01;12.10;99.90
24814;DHT22;12904;50.088;11.414;2023-07-08T03:19:27;12.00;99.90
24814;DHT22;12904;50.088;11.414;2023-07-08T03:21:53;11.90;99.90
24814;DHT22;12904;50.088;11.414;2023-07-08T03:24:18;11.70;99.90
24814;DHT22;12904;50.088;11.414;2023-07-08T03:26:45;11.70;99.90
24814;DHT22;12904;50.088;11.414;2023-07-08T03:29:18;11.60;99.90
24814;DHT22;12904;50.088;11.414;2023-07-08T03:31:44;11.60;99.90
24814;DHT22;12904;50.088;11.414;2023-07-08T03:34:11;11.60;99.90
24814;DHT22;12904;50.088;11.414;2023-07-08T03:36:48;11.60;99.90
24814;DHT22;12904;50.088;11.414;2023-07-08T03:39:19;11.60;99.90
24814;DHT22;12904;50.088;11.414;2023-07-08T03:41:45;11.60;99.90
24814;DHT22;12904;50.088;11.414;2023-07-08T03:44:12;11.60;99.90
24814;DHT22;12904;50.088;11.414;2023-07-08T03:46:38;11.60;99.90
24814;DHT22;12904;50.088;11.414;2023-07-08T03:49:05;11.60;99.90
24814;DHT22;12904;50.088;11.414;2023-07-08T03:51:35;11.60;99.90
24814;DHT22;12904;50.088;11.414;2023-07-08T03:54:01;11.60;99.90
24814;DHT22;12904;50.088;11.414;2023-07-08T03:56:26;11.60;99.90
24814;DHT22;12904;50.088;11.414;2023-07-08T03:58:52;11.70;99.90
24814;DHT22;12904;50.088;11.414;2023-07-08T04:01:22;11.70;99.90
24814;DHT22;12904;50.088;11.414;2023-07-08T04:03:51;11.70;99.90
24814;DHT22;12904;50.088;11.414;2023-07-08T04:06:17;11.80;99.90
24814;DHT22;12904;50.088;11.414;2023-07-08T04:08:42;11.80;99.90
24814;DHT22;12904;50.088;11.414;2023-07-08T04:11:12;11.80;99.90
24814;DHT22;12904;50.088;11.414;2023-07-08T04:13:37;11.90;99.90
24814;DHT22;12904;50.088;11.414;2023-07-08T04:16:04;11.90;99.90
24814;DHT22;12904;50.088;11.414;2023-07-08T04:18:31;11.90;99.90
24814;DHT22;12904;50.088;11.414;2023-07-08T04:20:57;12.00;99.90
24814;DHT22;12904;50.088;11.414;2023-07-08T04:23:23;12.00;99.90
24814;DHT22;12904;50.088;11.414;2023-07-08T04:25:50;12.00;99.90
24814;DHT22;12904;50.088;11.414;2023-07-08T04:28:16;12.10;99.90
24814;DHT22;12904;50.088;11.414;2023-07-08T04:30:42;12.20;99.90
24814;DHT22;12904;50.088;11.414;2023-07-08T04:33:13;12.20;99.90
24814;DHT22;12904;50.088;11.414;2023-07-08T04:35:40;12.30;99.90
24814;DHT22;12904;50.088;11.414;2023-07-08T04:38:26;12.40;99.90
24814;DHT22;12904;50.088;11.414;2023-07-08T04:40:53;12.40;99.90
24814;DHT22;12904;50.088;11.414;2023-07-08T04:43:20;12.50;99.90
24814;DHT22;12904;50.088;11.414;2023-07-08T04:45:51;12.50;99.90
24814;DHT22;12904;50.088;11.414;2023-07-08T04:48:19;12.60;99.90
24814;DHT22;12904;50.088;11.414;2023-07-08T04:50:48;12.70;99.90
24814;DHT22;12904;50.088;11.414;2023-07-08T04:53:14;12.70;99.90
24814;DHT22;12904;50.088;11.414;2023-07-08T04:56:00;12.80;99.90
24814;DHT22;12904;50.088;11.414;2023-07-08T04:58:26;12.80;99.90
24814;DHT22;12904;50.088;11.414;2023-07-08T05:00:51;12.90;99.90
24814;DHT22;12904;50.088;11.414;2023-07-08T05:03:17;12.90;99.90
24814;DHT22;12904;50.088;11.414;2023-07-08T05:05:43;13.00;99.90
24814;DHT22;12904;50.088;11.414;2023-07-08T05:08:08;13.10;99.90
24814;DHT22;12904;50.088;11.414;2023-07-08T05:10:34;13.10;99.90
24814;DHT22;12904;50.088;11.414;2023-07-08T05:13:00;13.10;99.90
24814;DHT22;12904;50.088;11.414;2023-07-08T05:15:26;13.20;99.90
24814;DHT22;12904;50.088;11.414;2023-07-08T05:17:51;13.30;99.90
24814;DHT22;12904;50.088;11.414;2023-07-08T05:20:18;13.30;99.90
24814;DHT22;12904;50.088;11.414;2023-07-08T05:22:44;13.40;99.90
24814;DHT22;12904;50.088;11.414;2023-07-08T05:25:11;13.50;99.90
24814;DHT22;12904;50.088;11.414;2023-07-08T05:27:37;13.70;99.90
24814;DHT22;12904;50.088;11.414;2023-07-08T05:30:04;13.80;99.90
24814;DHT22;12904;50.088;11.414;2023-07-08T05:32:30;13.90;99.90
24814;DHT22;12904;50.088;11.414;2023-07-08T05:34:56;14.00;99.90
24814;DHT22;12904;50.088;11.414;2023-07-08T05:37:22;14.10;99.90
24814;DHT22;12904;50.088;11.414;2023-07-08T05:39:51;14.20;99.90
24814;DHT22;12904;50.088;11.414;2023-07-08T05:42:17;14.30;99.90
24814;DHT22;12904;50.088;11.414;2023-07-08T05:44:43;14.40;99.90
24814;DHT22;12904;50.088;11.414;2023-07-08T05:47:09;14.60;99.90
24814;DHT22;12904;50.088;11.414;2023-07-08T05:49:34;14.70;99.90
24814;DHT22;12904;50.088;11.414;2023-07-08T05:52:01;14.90;99.90
24814;DHT22;12904;50.088;11.414;2023-07-08T05:54:31;15.00;99.90
24814;DHT22;12904;50.088;11.414;2023-07-08T05:56:56;15.20;99.90
24814;DHT22;12904;50.088;11.414;2023-07-08T05:59:22;15.40;99.90
24814;DHT22;12904;50.088;11.414;2023-07-08T06:01:48;15.50;99.90
24814;DHT22;12904;50.088;11.414;2023-07-08T06:04:13;15.60;99.90
24814;DHT22;12904;50.088;11.414;2023-07-08T06:06:39;15.80;99.90
24814;DHT22;12904;50.088;11.414;2023-07-08T06:09:04;16.00;99.90
24814;DHT22;12904;50.088;11.414;2023-07-08T06:11:30;16.10;99.90
24814;DHT22;12904;50.088;11.414;2023-07-08T06:13:56;16.20;99.90
24814;DHT22;12904;50.088;11.414;2023-07-08T06:16:22;16.40;99.90
24814;DHT22;12904;50.088;11.414;2023-07-08T06:18:47;16.50;99.90
24814;DHT22;12904;50.088;11.414;2023-07-08T06:21:13;16.70;99.90
24814;DHT22;12904;50.088;11.414;2023-07-08T06:23:38;16.90;99.90
24814;DHT22;12904;50.088;11.414;2023-07-08T06:26:04;17.00;99.90
24814;DHT22;12904;50.088;11.414;2023-07-08T06:28:30;17.20;99.90
24814;DHT22;12904;50.088;11.414;2023-07-08T06:30:55;17.40;99.90
24814;DHT22;12904;50.088;11.414;2023-07-08T06:33:21;17.60;99.90
24814;DHT22;12904;50.088;11.414;2023-07-08T06:35:46;17.70;99.90
24814;DHT22;12904;50.088;11.414;2023-07-08T06:38:12;17.80;99.90
24814;DHT22;12904;50.088;11.414;2023-07-08T06:40:38;18.00;99.90
24814;DHT22;12904;50.088;11.414;2023-07-08T06:43:04;18.10;99.90
24814;DHT22;12904;50.088;11.414;2023-07-08T06:45:29;18.20;99.90
24814;DHT22;12904;50.088;11.414;2023-07-08T06:47:55;18.30;99.90
24814;DHT22;12904;50.088;11.414;2023-07-08T06:50:20;18.50;99.90
24814;DHT22;12904;50.088;11.414;2023-07-08T06:52:46;18.60;99.90
24814;DHT22;12904;50.088;11.414;2023-07-08T06:55:12;18.70;99.90
24814;DHT22;12904;50.088;11.414;2023-07-08T06:57:38;18.90;99.90
24814;DHT22;12904;50.088;11.414;2023-07-08T07:00:06;19.00;99.90
24814;DHT22;12904;50.088;11.414;2023-07-08T07:02:32;19.20;99.90
24814;DHT22;12904;50.088;11.414;2023-07-08T07:04:58;19.30;99.90
24814;DHT22;12904;50.088;11.414;2023-07-08T07:07:24;19.40;99.90
24814;DHT22;12904;50.088;11.414;2023-07-08T07:09:49;19.50;99.90
24814;DHT22;12904;50.088;11.414;2023-07-08T07:12:15;19.70;99.90
24814;DHT22;12904;50.088;11.414;2023-07-08T07:14:41;19.90;99.90
24814;DHT22;12904;50.088;11.414;2023-07-08T07:17:06;20.00;99.90
24814;DHT22;12904;50.088;11.414;2023-07-08T07:19:32;20.10;99.90
24814;DHT22;12904;50.088;11.414;2023-07-08T07:21:57;20.30;99.90
24814;DHT22;12904;50.088;11.414;2023-07-08T07:24:23;20.40;99.90
24814;DHT22;12904;50.088;11.414;2023-07-08T07:26:49;20.50;99.90
24814;DHT22;12904;50.088;11.414;2023-07-08T07:29:17;20.70;99.90
24814;DHT22;12904;50.088;11.414;2023-07-08T07:31:43;20.80;99.90
24814;DHT22;12904;50.088;11.414;2023-07-08T07:34:09;21.00;99.90
24814;DHT22;12904;50.088;11.414;2023-07-08T07:36:36;21.20;99.90
24814;DHT22;12904;50.088;11.414;2023-07-08T07:39:01;21.60;99.90
24814;DHT22;12904;50.088;11.414;2023-07-08T07:41:27;21.90;99.90
24814;DHT22;12904;50.088;11.414;2023-07-08T07:43:52;22.10;99.90
24814;DHT22;12904;50.088;11.414;2023-07-08T07:46:18;22.30;99.80
24814;DHT22;12904;50.088;11.414;2023-07-08T07:48:44;22.40;97.50
24814;DHT22;12904;50.088;11.414;2023-07-08T07:51:10;22.60;96.20
24814;DHT22;12904;50.088;11.414;2023-07-08T07:53:37;22.70;95.50
24814;DHT22;12904;50.088;11.414;2023-07-08T07:56:03;22.90;94.90
24814;DHT22;12904;50.088;11.414;2023-07-08T07:58:30;23.10;92.10
24814;DHT22;12904;50.088;11.414;2023-07-08T08:00:56;23.40;91.20
24814;DHT22;12904;50.088;11.414;2023-07-08T08:03:22;23.60;90.90
24814;DHT22;12904;50.088;11.414;2023-07-08T08:05:48;23.80;90.10
24814;DHT22;12904;50.088;11.414;2023-07-08T08:08:14;24.10;85.90
24814;DHT22;12904;50.088;11.414;2023-07-08T08:10:41;24.20;87.20
24814;DHT22;12904;50.088;11.414;2023-07-08T08:13:07;24.40;86.50
24814;DHT22;12904;50.088;11.414;2023-07-08T08:15:34;24.60;87.30
24814;DHT22;12904;50.088;11.414;2023-07-08T08:17:59;24.90;77.00
24814;DHT22;12904;50.088;11.414;2023-07-08T08:20:26;25.20;81.60
24814;DHT22;12904;50.088;11.414;2023-07-08T08:22:52;25.50;78.40
24814;DHT22;12904;50.088;11.414;2023-07-08T08:25:19;25.70;75.00
24814;DHT22;12904;50.088;11.414;2023-07-08T08:27:45;25.80;78.80
24814;DHT22;12904;50.088;11.414;2023-07-08T08:30:12;26.10;70.40
24814;DHT22;12904;50.088;11.414;2023-07-08T08:32:37;26.20;69.30
24814;DHT22;12904;50.088;11.414;2023-07-08T08:35:03;26.20;70.30
24814;DHT22;12904;50.088;11.414;2023-07-08T08:37:29;26.30;69.80
24814;DHT22;12904;50.088;11.414;2023-07-08T08:39:55;26.40;64.60
24814;DHT22;12904;50.088;11.414;2023-07-08T08:42:43;26.50;66.50
24814;DHT22;12904;50.088;11.414;2023-07-08T08:45:13;26.70;64.00
24814;DHT22;12904;50.088;11.414;2023-07-08T08:47:45;26.90;60.20
24814;DHT22;12904;50.088;11.414;2023-07-08T08:53:02;27.10;59.90
24814;DHT22;12904;50.088;11.414;2023-07-08T08:55:29;27.30;59.20
24814;DHT22;12904;50.088;11.414;2023-07-08T08:58:06;27.40;58.30
24814;DHT22;12904;50.088;11.414;2023-07-08T09:03:18;27.70;58.80
24814;DHT22;12904;50.088;11.414;2023-07-08T09:05:47;27.90;57.20
24814;DHT22;12904;50.088;11.414;2023-07-08T09:08:26;27.90;56.10
24814;DHT22;12904;50.088;11.414;2023-07-08T09:13:37;28.10;55.30
24814;DHT22;12904;50.088;11.414;2023-07-08T09:16:09;28.20;52.40
24814;DHT22;12904;50.088;11.414;2023-07-08T09:18:45;28.30;57.10
24814;DHT22;12904;50.088;11.414;2023-07-08T09:21:21;28.40;52.00
24814;DHT22;12904;50.088;11.414;2023-07-08T09:23:51;28.50;54.30
24814;DHT22;12904;50.088;11.414;2023-07-08T09:26:22;28.70;54.00
24814;DHT22;12904;50.088;11.414;2023-07-08T09:28:48;28.90;50.30
24814;DHT22;12904;50.088;11.414;2023-07-08T09:31:27;28.90;49.30
24814;DHT22;12904;50.088;11.414;2023-07-08T09:34:23;29.00;50.60
24814;DHT22;12904;50.088;11.414;2023-07-08T09:36:50;29.10;50.10
24814;DHT22;12904;50.088;11.414;2023-07-08T09:39:18;29.30;51.10
24814;DHT22;12904;50.088;11.414;2023-07-08T09:41:47;29.40;52.00
24814;DHT22;12904;50.088;11.414;2023-07-08T09:46:42;29.80;46.80
24814;DHT22;12904;50.088;11.414;2023-07-08T09:49:23;29.80;48.20
24814;DHT22;12904;50.088;11.414;2023-07-08T09:51:50;29.90;47.70
24814;DHT22;12904;50.088;11.414;2023-07-08T09:54:21;30.00;49.50
24814;DHT22;12904;50.088;11.414;2023-07-08T09:59:46;30.40;46.70
24814;DHT22;12904;50.088;11.414;2023-07-08T10:05:12;30.70;46.90
24814;DHT22;12904;50.088;11.414;2023-07-08T10:07:38;30.80;47.40
24814;DHT22;12904;50.088;11.414;2023-07-08T10:10:08;30.90;47.70
24814;DHT22;12904;50.088;11.414;2023-07-08T10:12:37;30.80;45.10
24814;DHT22;12904;50.088;11.414;2023-07-08T10:15:44;30.80;46.00
24814;DHT22;12904;50.088;11.414;2023-07-08T10:18:02;30.70;46.20
24814;DHT22;12904;50.088;11.414;2023-07-08T10:21:29;30.80;43.70
24814;DHT22;12904;50.088;11.414;2023-07-08T10:26:28;31.10;42.80
24814;DHT22;12904;50.088;11.414;2023-07-08T10:50:42;30.80;43.80
24814;DHT22;12904;50.088;11.414;2023-07-08T10:56:11;30.80;40.20
24814;DHT22;12904;50.088;11.414;2023-07-08T11:01:42;30.70;40.00
24814;DHT22;12904;50.088;11.414;2023-07-08T11:05:02;30.70;42.20
24814;DHT22;12904;50.088;11.414;2023-07-08T11:07:16;30.80;41.70
24814;DHT22;12904;50.088;11.414;2023-07-08T11:09:51;30.90;41.20
24814;DHT22;12904;50.088;11.414;2023-07-08T11:25:46;31.10;41.80
24814;DHT22;12904;50.088;11.414;2023-07-08T11:28:17;31.20;41.40
24814;DHT22;12904;50.088;11.414;2023-07-08T11:30:44;31.40;42.00
24814;DHT22;12904;50.088;11.414;2023-07-08T11:33:12;31.40;39.60
24814;DHT22;12904;50.088;11.414;2023-07-08T11:35:51;31.40;39.50
24814;DHT22;12904;50.088;11.414;2023-07-08T11:38:20;31.40;40.10
24814;DHT22;12904;50.088;11.414;2023-07-08T11:41:30;31.40;40.20
24814;DHT22;12904;50.088;11.414;2023-07-08T11:46:25;31.30;41.10
24814;DHT22;12904;50.088;11.414;2023-07-08T11:48:55;31.50;41.40
24814;DHT22;12904;50.088;11.414;2023-07-08T11:51:37;31.70;41.30
24814;DHT22;12904;50.088;11.414;2023-07-08T11:59:20;31.90;39.90
24814;DHT22;12904;50.088;11.414;2023-07-08T12:04:34;32.00;39.30
24814;DHT22;12904;50.088;11.414;2023-07-08T12:09:36;31.90;37.90
24814;DHT22;12904;50.088;11.414;2023-07-08T12:12:07;31.90;36.80
24814;DHT22;12904;50.088;11.414;2023-07-08T12:14:33;31.70;36.10
24814;DHT22;12904;50.088;11.414;2023-07-08T12:16:58;31.60;37.30
24814;DHT22;12904;50.088;11.414;2023-07-08T12:19:27;31.50;37.50
24814;DHT22;12904;50.088;11.414;2023-07-08T12:21:54;31.50;38.00
24814;DHT22;12904;50.088;11.414;2023-07-08T12:24:20;31.60;37.40
24814;DHT22;12904;50.088;11.414;2023-07-08T12:26:51;31.70;38.10
24814;DHT22;12904;50.088;11.414;2023-07-08T12:29:17;31.80;39.40
24814;DHT22;12904;50.088;11.414;2023-07-08T12:31:43;32.00;38.00
24814;DHT22;12904;50.088;11.414;2023-07-08T12:34:14;32.00;37.20
24814;DHT22;12904;50.088;11.414;2023-07-08T12:36:41;32.10;37.30
24814;DHT22;12904;50.088;11.414;2023-07-08T12:39:11;32.00;37.80
24814;DHT22;12904;50.088;11.414;2023-07-08T12:41:40;32.10;36.80
24814;DHT22;12904;50.088;11.414;2023-07-08T12:44:15;32.20;37.10
24814;DHT22;12904;50.088;11.414;2023-07-08T12:46:41;32.30;38.60
24814;DHT22;12904;50.088;11.414;2023-07-08T12:49:08;32.40;35.70
24814;DHT22;12904;50.088;11.414;2023-07-08T12:51:34;32.40;35.90
24814;DHT22;12904;50.088;11.414;2023-07-08T12:53:59;32.50;36.70
24814;DHT22;12904;50.088;11.414;2023-07-08T12:56:25;32.50;35.80
24814;DHT22;12904;50.088;11.414;2023-07-08T12:58:54;32.60;35.60
24814;DHT22;12904;50.088;11.414;2023-07-08T13:01:30;32.70;36.10
24814;DHT22;12904;50.088;11.414;2023-07-08T13:04:01;32.70;36.40
24814;DHT22;12904;50.088;11.414;2023-07-08T13:06:30;32.70;36.20
24814;DHT22;12904;50.088;11.414;2023-07-08T13:09:01;32.80;37.60
24814;DHT22;12904;50.088;11.414;2023-07-08T13:11:29;32.80;37.70
24814;DHT22;12904;50.088;11.414;2023-07-08T13:13:58;32.70;37.00
24814;DHT22;12904;50.088;11.414;2023-07-08T13:16:31;32.60;36.90
24814;DHT22;12904;50.088;11.414;2023-07-08T13:18:57;32.70;37.20
24814;DHT22;12904;50.088;11.414;2023-07-08T13:21:23;32.70;36.60
24814;DHT22;12904;50.088;11.414;2023-07-08T13:23:53;32.70;37.10
24814;DHT22;12904;50.088;11.414;2023-07-08T13:26:25;32.70;37.10
24814;DHT22;12904;50.088;11.414;2023-07-08T13:29:00;32.80;36.40
24814;DHT22;12904;50.088;11.414;2023-07-08T13:31:32;32.80;36.20
24814;DHT22;12904;50.088;11.414;2023-07-08T13:34:07;32.70;38.20
24814;DHT22;12904;50.088;11.414;2023-07-08T13:36:36;32.70;38.90
24814;DHT22;12904;50.088;11.414;2023-07-08T13:39:06;32.70;38.70
24814;DHT22;12904;50.088;11.414;2023-07-08T13:41:33;32.70;39.20
24814;DHT22;12904;50.088;11.414;2023-07-08T13:44:05;32.80;38.30
24814;DHT22;12904;50.088;11.414;2023-07-08T13:49:31;32.70;38.30
24814;DHT22;12904;50.088;11.414;2023-07-08T13:54:47;32.90;37.00
24814;DHT22;12904;50.088;11.414;2023-07-08T13:57:17;33.00;37.90
24814;DHT22;12904;50.088;11.414;2023-07-08T13:59:43;33.10;39.00
24814;DHT22;12904;50.088;11.414;2023-07-08T14:02:22;33.10;36.20
24814;DHT22;12904;50.088;11.414;2023-07-08T14:04:49;33.10;36.60
24814;DHT22;12904;50.088;11.414;2023-07-08T14:07:21;33.10;38.70
24814;DHT22;12904;50.088;11.414;2023-07-08T14:09:47;33.20;37.30
24814;DHT22;12904;50.088;11.414;2023-07-08T14:12:13;33.30;36.20
24814;DHT22;12904;50.088;11.414;2023-07-08T14:14:39;33.40;35.80
24814;DHT22;12904;50.088;11.414;2023-07-08T14:17:05;33.50;35.80
24814;DHT22;12904;50.088;11.414;2023-07-08T14:19:34;33.60;37.30
24814;DHT22;12904;50.088;11.414;2023-07-08T14:22:19;33.70;35.90
24814;DHT22;12904;50.088;11.414;2023-07-08T14:24:45;33.70;36.20
24814;DHT22;12904;50.088;11.414;2023-07-08T14:27:11;33.90;36.00
24814;DHT22;12904;50.088;11.414;2023-07-08T14:29:41;33.80;36.40
24814;DHT22;12904;50.088;11.414;2023-07-08T14:32:24;33.80;37.60
24814;DHT22;12904;50.088;11.414;2023-07-08T14:34:57;33.90;35.80
24814;DHT22;12904;50.088;11.414;2023-07-08T14:37:24;33.90;35.90
24814;DHT22;12904;50.088;11.414;2023-07-08T14:39:50;33.90;36.40
24814;DHT22;12904;50.088;11.414;2023-07-08T14:42:18;33.90;35.00
24814;DHT22;12904;50.088;11.414;2023-07-08T14:44:52;33.80;35.40
24814;DHT22;12904;50.088;11.414;2023-07-08T14:47:19;33.80;36.10
24814;DHT22;12904;50.088;11.414;2023-07-08T14:49:45;33.90;35.20
24814;DHT22;12904;50.088;11.414;2023-07-08T14:52:11;33.90;36.30
24814;DHT22;12904;50.088;11.414;2023-07-08T14:54:37;34.00;36.90
24814;DHT22;12904;50.088;11.414;2023-07-08T14:57:04;33.90;37.20
24814;DHT22;12904;50.088;11.414;2023-07-08T14:59:32;34.00;36.30
24814;DHT22;12904;50.088;11.414;2023-07-08T15:02:15;33.90;36.40
24814;DHT22;12904;50.088;11.414;2023-07-08T15:04:42;33.80;34.00
24814;DHT22;12904;50.088;11.414;2023-07-08T15:07:09;33.60;34.40
24814;DHT22;12904;50.088;11.414;2023-07-08T15:09:34;33.60;35.30
24814;DHT22;12904;50.088;11.414;2023-07-08T15:12:00;33.60;35.00
24814;DHT22;12904;50.088;11.414;2023-07-08T15:14:26;33.60;35.20
24814;DHT22;12904;50.088;11.414;2023-07-08T15:16:52;33.70;35.20
24814;DHT22;12904;50.088;11.414;2023-07-08T15:19:19;33.90;35.50
24814;DHT22;12904;50.088;11.414;2023-07-08T15:21:45;34.20;34.10
24814;DHT22;12904;50.088;11.414;2023-07-08T15:24:12;34.30;35.10
24814;DHT22;12904;50.088;11.414;2023-07-08T15:26:44;34.30;35.00
24814;DHT22;12904;50.088;11.414;2023-07-08T15:29:15;34.30;33.60
24814;DHT22;12904;50.088;11.414;2023-07-08T15:31:41;34.40;34.60
24814;DHT22;12904;50.088;11.414;2023-07-08T15:34:18;34.50;35.30
24814;DHT22;12904;50.088;11.414;2023-07-08T15:36:45;34.90;34.40
24814;DHT22;12904;50.088;11.414;2023-07-08T15:39:11;35.20;34.20
24814;DHT22;12904;50.088;11.414;2023-07-08T15:41:39;35.70;34.10
24814;DHT22;12904;50.088;11.414;2023-07-08T15:44:10;35.90;32.60
24814;DHT22;12904;50.088;11.414;2023-07-08T15:46:47;35.90;34.10
24814;DHT22;12904;50.088;11.414;2023-07-08T15:49:24;35.70;34.80
24814;DHT22;12904;50.088;11.414;2023-07-08T15:51:55;35.70;33.90
24814;DHT22;12904;50.088;11.414;2023-07-08T15:54:21;35.80;34.40
24814;DHT22;12904;50.088;11.414;2023-07-08T15:56:49;36.30;33.40
24814;DHT22;12904;50.088;11.414;2023-07-08T15:59:20;36.90;32.70
24814;DHT22;12904;50.088;11.414;2023-07-08T16:01:47;37.60;32.80
24814;DHT22;12904;50.088;11.414;2023-07-08T16:04:34;38.00;31.60
24814;DHT22;12904;50.088;11.414;2023-07-08T16:07:00;37.80;30.60
24814;DHT22;12904;50.088;11.414;2023-07-08T16:09:26;37.40;32.00
24814;DHT22;12904;50.088;11.414;2023-07-08T16:11:52;37.10;30.10
24814;DHT22;12904;50.088;11.414;2023-07-08T16:14:19;36.70;31.60
24814;DHT22;12904;50.088;11.414;2023-07-08T16:16:45;36.70;31.60
24814;DHT22;12904;50.088;11.414;2023-07-08T16:19:11;36.90;31.70
24814;DHT22;12904;50.088;11.414;2023-07-08T16:21:38;37.20;32.10
24814;DHT22;12904;50.088;11.414;2023-07-08T16:24:04;37.50;32.00
24814;DHT22;12904;50.088;11.414;2023-07-08T16:26:30;37.90;32.40
24814;DHT22;12904;50.088;11.414;2023-07-08T16:28:56;38.30;30.80
24814;DHT22;12904;50.088;11.414;2023-07-08T16:31:24;38.50;30.10
24814;DHT22;12904;50.088;11.414;2023-07-08T16:33:51;38.60;30.10
24814;DHT22;12904;50.088;11.414;2023-07-08T16:36:20;38.50;29.40
24814;DHT22;12904;50.088;11.414;2023-07-08T16:38:46;38.50;29.20
24814;DHT22;12904;50.088;11.414;2023-07-08T16:41:13;38.60;29.60
24814;DHT22;12904;50.088;11.414;2023-07-08T16:43:40;38.40;31.40
24814;DHT22;12904;50.088;11.414;2023-07-08T16:46:11;38.20;31.20
24814;DHT22;12904;50.088;11.414;2023-07-08T16:48:37;37.90;30.40
24814;DHT22;12904;50.088;11.414;2023-07-08T16:51:04;37.70;32.30
24814;DHT22;12904;50.088;11.414;2023-07-08T16:53:30;37.30;31.40
24814;DHT22;12904;50.088;11.414;2023-07-08T16:55:56;36.90;31.90
24814;DHT22;12904;50.088;11.414;2023-07-08T16:58:22;36.40;31.90